PWSweather.com
Personal Weather Stations
Station Observations
HELOTES
Helotes Park Terrace, Helotes, TX 78023

Helotes Park TerraceHelotes, TX 78023

Lat: 29.57, Lon: -98.68

Elevation: 1060

Station Type: Ambient Weather WS-1090

Latest ConditionsUpdated 12:52:18 PM CDT Tuesday, Sep 30, 2014
Currently Today's Max Today's Min Today's Average
Temperature 85.3°F29.6°C 85.3°F29.6°C 64.4°F18.0°C 70.0°F21.1°C
Dew Point 70.8°F21.6°C 72.1°F22.3°C 59.1°F15.1°C 63.2°F17.3°C
Winds 1.9 mph NE3.1 kmh NE 5.2 mph SE8.4 kmh SE - 2.2 mph 3.5 kmh
Wind Gusts 3.6 mph5.8 kmh 7.4 mph11.9 kmh - -
Humidity 62% 88% 62% 79%
Pressure 29.80 in1009.1 mb 29.83 in1010.2 mb 29.80 in1009.1 mb -
Hour Temp Dew Point Humidity Winds Wind Gusts Pressure Precip Precip Rate Daily Precip Total
12:52 PM 85.3°F29.6°C 70.8°F21.6°C 62% 1.9 mph NE3.1 kmh NE 3.6 mph5.8 kmh 29.80 in1009.1 mb 0.00 in0.0 mm 0.00 in/hr0.0 mm/hr 0.00 in0.0 mm
12:47 PM 85.3°F29.6°C 71.3°F21.8°C 63% 2.5 mph NE4.0 kmh NE 3.6 mph5.8 kmh 29.80 in1009.1 mb 0.00 in0.0 mm 0.00 in/hr0.0 mm/hr 0.00 in0.0 mm
12:42 PM 85.3°F29.6°C 71.7°F22.1°C 64% 2.0 mph N3.2 kmh N 6.3 mph10.1 kmh 29.80 in1009.1 mb 0.00 in0.0 mm 0.00 in/hr0.0 mm/hr 0.00 in0.0 mm
12:37 PM 85.3°F29.6°C 71.7°F22.1°C 64% 3.8 mph NE6.1 kmh NE 6.3 mph10.1 kmh 29.81 in1009.5 mb 0.00 in0.0 mm 0.00 in/hr0.0 mm/hr 0.00 in0.0 mm
12:32 PM 85.1°F29.5°C 72.0°F22.2°C 65% 4.4 mph NE7.1 kmh NE 5.6 mph9.0 kmh 29.81 in1009.5 mb 0.00 in0.0 mm 0.00 in/hr0.0 mm/hr 0.00 in0.0 mm
12:27 PM 84.8°F29.3°C 71.7°F22.1°C 65% 3.8 mph SE6.1 kmh SE 7.4 mph11.9 kmh 29.81 in1009.5 mb 0.00 in0.0 mm 0.00 in/hr0.0 mm/hr 0.00 in0.0 mm
12:22 PM 84.2°F29.0°C 71.2°F21.8°C 65% 5.2 mph SE8.4 kmh SE 7.4 mph11.9 kmh 29.81 in1009.5 mb 0.00 in0.0 mm 0.00 in/hr0.0 mm/hr 0.00 in0.0 mm
12:17 PM 83.9°F28.8°C 71.7°F22.1°C 67% 3.5 mph ESE5.6 kmh ESE 5.1 mph8.2 kmh 29.81 in1009.5 mb 0.00 in0.0 mm 0.00 in/hr0.0 mm/hr 0.00 in0.0 mm
12:12 PM 83.7°F28.7°C 71.6°F22.0°C 67% 2.4 mph SW3.9 kmh SW 4.3 mph6.9 kmh 29.81 in1009.5 mb 0.00 in0.0 mm 0.00 in/hr0.0 mm/hr 0.00 in0.0 mm
12:07 PM 83.5°F28.6°C 71.4°F21.9°C 67% 2.6 mph ESE4.2 kmh ESE 4.3 mph6.9 kmh 29.82 in1009.8 mb 0.00 in0.0 mm 0.00 in/hr0.0 mm/hr 0.00 in0.0 mm
12:02 PM 83.2°F28.4°C 71.9°F22.2°C 69% 2.5 mph NE4.0 kmh NE 4.0 mph6.4 kmh 29.82 in1009.8 mb 0.00 in0.0 mm 0.00 in/hr0.0 mm/hr 0.00 in0.0 mm
11:57 AM 83.0°F28.3°C 71.7°F22.1°C 69% 1.7 mph NE2.7 kmh NE 3.8 mph6.1 kmh 29.82 in1009.8 mb 0.00 in0.0 mm 0.00 in/hr0.0 mm/hr 0.00 in0.0 mm
11:52 AM 82.8°F28.2°C 72.0°F22.2°C 70% 2.5 mph NNE4.0 kmh NNE 4.7 mph7.6 kmh 29.82 in1009.8 mb 0.00 in0.0 mm 0.00 in/hr0.0 mm/hr 0.00 in0.0 mm
11:47 AM 82.4°F28.0°C 72.1°F22.3°C 71% 3.7 mph ENE6.0 kmh ENE 5.8 mph9.3 kmh 29.82 in1009.8 mb 0.00 in0.0 mm 0.00 in/hr0.0 mm/hr 0.00 in0.0 mm
11:42 AM 81.9°F27.7°C 71.6°F22.0°C 71% 3.1 mph E5.0 kmh E 5.8 mph9.3 kmh 29.82 in1009.8 mb 0.00 in0.0 mm 0.00 in/hr0.0 mm/hr 0.00 in0.0 mm
11:37 AM 81.4°F27.4°C 71.5°F21.9°C 72% 4.6 mph E7.4 kmh E 5.8 mph9.3 kmh 29.82 in1009.8 mb 0.00 in0.0 mm 0.00 in/hr0.0 mm/hr 0.00 in0.0 mm
11:32 AM 81.0°F27.2°C 71.6°F22.0°C 73% 4.0 mph NE6.4 kmh NE 5.8 mph9.3 kmh 29.82 in1009.8 mb 0.00 in0.0 mm 0.00 in/hr0.0 mm/hr 0.00 in0.0 mm
11:27 AM 80.5°F26.9°C 71.5°F21.9°C 74% 4.1 mph ENE6.6 kmh ENE 6.7 mph10.8 kmh 29.82 in1009.8 mb 0.00 in0.0 mm 0.00 in/hr0.0 mm/hr 0.00 in0.0 mm
11:22 AM 80.1°F26.7°C 71.5°F21.9°C 75% 3.5 mph ESE5.6 kmh ESE 6.7 mph10.8 kmh 29.82 in1009.8 mb 0.00 in0.0 mm 0.00 in/hr0.0 mm/hr 0.00 in0.0 mm
11:17 AM 79.6°F26.4°C 71.7°F22.1°C 77% 5.2 mph S8.4 kmh S 6.5 mph10.5 kmh 29.82 in1009.8 mb 0.00 in0.0 mm 0.00 in/hr0.0 mm/hr 0.00 in0.0 mm
11:12 AM 79.0°F26.1°C 71.6°F22.0°C 78% 2.5 mph E4.0 kmh E 6.0 mph9.7 kmh 29.82 in1009.8 mb 0.00 in0.0 mm 0.00 in/hr0.0 mm/hr 0.00 in0.0 mm
11:07 AM 78.7°F25.9°C 71.2°F21.8°C 78% 2.8 mph SE4.5 kmh SE 6.3 mph10.1 kmh 29.82 in1009.8 mb 0.00 in0.0 mm 0.00 in/hr0.0 mm/hr 0.00 in0.0 mm
11:02 AM 78.3°F25.7°C 70.8°F21.6°C 78% 2.4 mph SE3.9 kmh SE 6.3 mph10.1 kmh 29.83 in1010.2 mb 0.00 in0.0 mm 0.00 in/hr0.0 mm/hr 0.00 in0.0 mm
10:57 AM 77.9°F25.5°C 70.9°F21.6°C 79% 2.9 mph SE4.7 kmh SE 5.1 mph8.2 kmh 29.83 in1010.2 mb 0.00 in0.0 mm 0.00 in/hr0.0 mm/hr 0.00 in0.0 mm
10:52 AM 77.6°F25.3°C 70.9°F21.6°C 80% 2.2 mph SSW3.5 kmh SSW 5.4 mph8.7 kmh 29.83 in1010.2 mb 0.00 in0.0 mm 0.00 in/hr0.0 mm/hr 0.00 in0.0 mm
10:47 AM 77.2°F25.1°C 70.9°F21.6°C 81% 3.9 mph SSE6.3 kmh SSE 5.4 mph8.7 kmh 29.83 in1010.2 mb 0.00 in0.0 mm 0.00 in/hr0.0 mm/hr 0.00 in0.0 mm
10:42 AM 76.9°F24.9°C 70.6°F21.4°C 81% 2.4 mph NE3.9 kmh NE 5.1 mph8.2 kmh 29.83 in1010.2 mb 0.00 in0.0 mm 0.00 in/hr0.0 mm/hr 0.00 in0.0 mm
10:37 AM 76.3°F24.6°C 70.5°F21.4°C 82% 2.4 mph E3.9 kmh E 5.1 mph8.2 kmh 29.83 in1010.2 mb 0.00 in0.0 mm 0.00 in/hr0.0 mm/hr 0.00 in0.0 mm
10:32 AM 76.0°F24.4°C 70.1°F21.2°C 82% 3.1 mph E5.0 kmh E 5.1 mph8.2 kmh 29.83 in1010.2 mb 0.00 in0.0 mm 0.00 in/hr0.0 mm/hr 0.00 in0.0 mm
10:27 AM 75.8°F24.3°C 70.3°F21.3°C 83% 0.7 mph SW1.1 kmh SW 4.0 mph6.4 kmh 29.83 in1010.2 mb 0.00 in0.0 mm 0.00 in/hr0.0 mm/hr 0.00 in0.0 mm
10:22 AM 75.4°F24.1°C 70.3°F21.3°C 84% 2.7 mph S4.3 kmh S 3.4 mph5.5 kmh 29.83 in1010.2 mb 0.00 in0.0 mm 0.00 in/hr0.0 mm/hr 0.00 in0.0 mm
10:17 AM 74.5°F23.6°C 69.8°F21.0°C 85% 1.8 mph E2.9 kmh E 1.8 mph2.9 kmh 29.83 in1010.2 mb 0.00 in0.0 mm 0.00 in/hr0.0 mm/hr 0.00 in0.0 mm
10:12 AM 74.5°F23.6°C 70.1°F21.2°C 86% 1.3 mph N2.1 kmh N 3.1 mph5.0 kmh 29.83 in1010.2 mb 0.00 in0.0 mm 0.00 in/hr0.0 mm/hr 0.00 in0.0 mm
10:07 AM 73.8°F23.2°C 69.4°F20.8°C 86% 1.9 mph E3.1 kmh E 3.1 mph5.0 kmh 29.83 in1010.2 mb 0.00 in0.0 mm 0.00 in/hr0.0 mm/hr 0.00 in0.0 mm
10:02 AM 73.1°F22.8°C 68.7°F20.4°C 86% 0.9 mph NNE1.4 kmh NNE 2.5 mph4.0 kmh 29.83 in1010.2 mb 0.00 in0.0 mm 0.00 in/hr0.0 mm/hr 0.00 in0.0 mm
09:57 AM 72.7°F22.6°C 68.3°F20.2°C 86% 1.9 mph WSW3.1 kmh WSW 2.5 mph4.0 kmh 29.83 in1010.2 mb 0.00 in0.0 mm 0.00 in/hr0.0 mm/hr 0.00 in0.0 mm
09:52 AM 72.4°F22.4°C 68.3°F20.2°C 87% 1.1 mph WSW1.8 kmh WSW 3.8 mph6.1 kmh 29.83 in1010.2 mb 0.00 in0.0 mm 0.00 in/hr0.0 mm/hr 0.00 in0.0 mm
09:47 AM 71.8°F22.1°C 67.8°F19.9°C 87% 0.8 mph SSE1.3 kmh SSE 3.8 mph6.1 kmh 29.83 in1010.2 mb 0.00 in0.0 mm 0.00 in/hr0.0 mm/hr 0.00 in0.0 mm
09:42 AM 71.3°F21.8°C 67.5°F19.7°C 88% 2.5 mph SW4.0 kmh SW 4.0 mph6.4 kmh 29.83 in1010.2 mb 0.00 in0.0 mm 0.00 in/hr0.0 mm/hr 0.00 in0.0 mm
09:37 AM 70.4°F21.3°C 66.6°F19.2°C 88% 1.7 mph SSE2.7 kmh SSE 4.0 mph6.4 kmh 29.82 in1009.8 mb 0.00 in0.0 mm 0.00 in/hr0.0 mm/hr 0.00 in0.0 mm
09:32 AM 69.8°F21.0°C 65.8°F18.8°C 87% 0.4 mph NE0.6 kmh NE 2.0 mph3.2 kmh 29.82 in1009.8 mb 0.00 in0.0 mm 0.00 in/hr0.0 mm/hr 0.00 in0.0 mm
09:27 AM 69.3°F20.7°C 65.6°F18.7°C 88% 1.4 mph NE2.3 kmh NE 2.5 mph4.0 kmh 29.82 in1009.8 mb 0.00 in0.0 mm 0.00 in/hr0.0 mm/hr 0.00 in0.0 mm
09:22 AM 68.8°F20.4°C 64.7°F18.2°C 87% 1.4 mph E2.3 kmh E 2.5 mph4.0 kmh 29.82 in1009.8 mb 0.00 in0.0 mm 0.00 in/hr0.0 mm/hr 0.00 in0.0 mm
09:17 AM 68.2°F20.1°C 64.2°F17.9°C 87% 0.5 mph ENE0.8 kmh ENE 1.3 mph2.1 kmh 29.82 in1009.8 mb 0.00 in0.0 mm 0.00 in/hr0.0 mm/hr 0.00 in0.0 mm
09:12 AM 67.7°F19.8°C 63.6°F17.6°C 87% 0.2 mph SW0.3 kmh SW 1.8 mph2.9 kmh 29.82 in1009.8 mb 0.00 in0.0 mm 0.00 in/hr0.0 mm/hr 0.00 in0.0 mm
09:07 AM 67.3°F19.6°C 63.3°F17.4°C 87% 0.8 mph SW1.3 kmh SW 2.0 mph3.2 kmh 29.82 in1009.8 mb 0.00 in0.0 mm 0.00 in/hr0.0 mm/hr 0.00 in0.0 mm
09:02 AM 67.0°F19.4°C 62.9°F17.2°C 87% 1.1 mph SW1.8 kmh SW 3.8 mph6.1 kmh 29.82 in1009.8 mb 0.00 in0.0 mm 0.00 in/hr0.0 mm/hr 0.00 in0.0 mm
08:57 AM 66.6°F19.2°C 62.6°F17.0°C 87% 2.8 mph WSW4.5 kmh WSW 3.8 mph6.1 kmh 29.82 in1009.8 mb 0.00 in0.0 mm 0.00 in/hr0.0 mm/hr 0.00 in0.0 mm
08:52 AM 66.2°F19.0°C 62.2°F16.8°C 87% 3.2 mph W5.1 kmh W 3.6 mph5.8 kmh 29.82 in1009.8 mb 0.00 in0.0 mm 0.00 in/hr0.0 mm/hr 0.00 in0.0 mm
08:47 AM 65.9°F18.8°C 61.8°F16.6°C 87% 2.2 mph WSW3.5 kmh WSW 3.6 mph5.8 kmh 29.82 in1009.8 mb 0.00 in0.0 mm 0.00 in/hr0.0 mm/hr 0.00 in0.0 mm
08:42 AM 65.5°F18.6°C 61.2°F16.2°C 86% 2.1 mph WSW3.4 kmh WSW 2.7 mph4.3 kmh 29.82 in1009.8 mb 0.00 in0.0 mm 0.00 in/hr0.0 mm/hr 0.00 in0.0 mm
08:37 AM 65.3°F18.5°C 61.0°F16.1°C 86% 2.2 mph WSW3.5 kmh WSW 2.9 mph4.7 kmh 29.82 in1009.8 mb 0.00 in0.0 mm 0.00 in/hr0.0 mm/hr 0.00 in0.0 mm
08:32 AM 65.2°F18.4°C 60.6°F15.9°C 85% 2.5 mph WSW4.0 kmh WSW 3.6 mph5.8 kmh 29.82 in1009.8 mb 0.00 in0.0 mm 0.00 in/hr0.0 mm/hr 0.00 in0.0 mm
08:27 AM 65.0°F18.3°C 60.4°F15.8°C 85% 3.4 mph WSW5.5 kmh WSW 3.6 mph5.8 kmh 29.82 in1009.8 mb 0.00 in0.0 mm 0.00 in/hr0.0 mm/hr 0.00 in0.0 mm
08:22 AM 64.6°F18.1°C 60.0°F15.6°C 85% 1.9 mph WSW3.1 kmh WSW 2.0 mph3.2 kmh 29.82 in1009.8 mb 0.00 in0.0 mm 0.00 in/hr0.0 mm/hr 0.00 in0.0 mm
08:17 AM 64.4°F18.0°C 59.5°F15.3°C 84% 1.7 mph WSW2.7 kmh WSW 1.8 mph2.9 kmh 29.82 in1009.8 mb 0.00 in0.0 mm 0.00 in/hr0.0 mm/hr 0.00 in0.0 mm
08:12 AM 64.4°F18.0°C 59.5°F15.3°C 84% 1.3 mph WSW2.1 kmh WSW 1.8 mph2.9 kmh 29.82 in1009.8 mb 0.00 in0.0 mm 0.00 in/hr0.0 mm/hr 0.00 in0.0 mm
08:07 AM 64.4°F18.0°C 59.5°F15.3°C 84% 1.4 mph WSW2.3 kmh WSW 2.0 mph3.2 kmh 29.82 in1009.8 mb 0.00 in0.0 mm 0.00 in/hr0.0 mm/hr 0.00 in0.0 mm
08:02 AM 64.4°F18.0°C 59.1°F15.1°C 83% 1.6 mph WSW2.6 kmh WSW 2.0 mph3.2 kmh 29.82 in1009.8 mb 0.00 in0.0 mm 0.00 in/hr0.0 mm/hr 0.00 in0.0 mm
07:57 AM 64.4°F18.0°C 59.1°F15.1°C 83% 1.3 mph WSW2.1 kmh WSW 1.8 mph2.9 kmh 29.82 in1009.8 mb 0.00 in0.0 mm 0.00 in/hr0.0 mm/hr 0.00 in0.0 mm
07:52 AM 64.4°F18.0°C 59.1°F15.1°C 83% 1.6 mph WSW2.6 kmh WSW 2.5 mph4.0 kmh 29.82 in1009.8 mb 0.00 in0.0 mm 0.00 in/hr0.0 mm/hr 0.00 in0.0 mm
07:47 AM 64.4°F18.0°C 59.1°F15.1°C 83% 1.6 mph WSW2.6 kmh WSW 2.7 mph4.3 kmh 29.83 in1010.2 mb 0.00 in0.0 mm 0.00 in/hr0.0 mm/hr 0.00 in0.0 mm
07:42 AM 64.4°F18.0°C 59.1°F15.1°C 83% 2.5 mph WSW4.0 kmh WSW 2.7 mph4.3 kmh 29.83 in1010.2 mb 0.00 in0.0 mm 0.00 in/hr0.0 mm/hr 0.00 in0.0 mm
07:37 AM 64.4°F18.0°C 59.1°F15.1°C 83% 1.7 mph WSW2.7 kmh WSW 4.0 mph6.4 kmh 29.83 in1010.2 mb 0.00 in0.0 mm 0.00 in/hr0.0 mm/hr 0.00 in0.0 mm
07:32 AM 64.6°F18.1°C 59.3°F15.2°C 83% 3.1 mph WSW5.0 kmh WSW 4.0 mph6.4 kmh 29.83 in1010.2 mb 0.00 in0.0 mm 0.00 in/hr0.0 mm/hr 0.00 in0.0 mm
07:27 AM 64.6°F18.1°C 59.3°F15.2°C 83% 2.0 mph WSW3.2 kmh WSW 2.2 mph3.5 kmh 29.82 in1009.8 mb 0.00 in0.0 mm 0.00 in/hr0.0 mm/hr 0.00 in0.0 mm
07:22 AM 64.8°F18.2°C 59.9°F15.5°C 84% 0.6 mph WSW1.0 kmh WSW 0.9 mph1.4 kmh 29.82 in1009.8 mb 0.00 in0.0 mm 0.00 in/hr0.0 mm/hr 0.00 in0.0 mm
07:17 AM 64.8°F18.2°C 59.9°F15.5°C 84% Calm Calm 1.6 mph2.6 kmh 29.82 in1009.8 mb 0.00 in0.0 mm 0.00 in/hr0.0 mm/hr 0.00 in0.0 mm
07:12 AM 65.0°F18.3°C 60.0°F15.6°C 84% 0.6 mph WSW1.0 kmh WSW 1.8 mph2.9 kmh 29.81 in1009.5 mb 0.00 in0.0 mm 0.00 in/hr0.0 mm/hr 0.00 in0.0 mm
07:07 AM 65.0°F18.3°C 60.0°F15.6°C 84% 1.3 mph WSW2.1 kmh WSW 1.8 mph2.9 kmh 29.82 in1009.8 mb 0.00 in0.0 mm 0.00 in/hr0.0 mm/hr 0.00 in0.0 mm
07:02 AM 65.0°F18.3°C 60.0°F15.6°C 84% 1.1 mph WSW1.8 kmh WSW 1.6 mph2.6 kmh 29.82 in1009.8 mb 0.00 in0.0 mm 0.00 in/hr0.0 mm/hr 0.00 in0.0 mm
06:57 AM 65.0°F18.3°C 59.7°F15.4°C 83% 1.2 mph WSW1.9 kmh WSW 2.0 mph3.2 kmh 29.82 in1009.8 mb 0.00 in0.0 mm 0.00 in/hr0.0 mm/hr 0.00 in0.0 mm
06:52 AM 65.2°F18.4°C 59.9°F15.5°C 83% 1.5 mph WSW2.4 kmh WSW 2.5 mph4.0 kmh 29.82 in1009.8 mb 0.00 in0.0 mm 0.00 in/hr0.0 mm/hr 0.00 in0.0 mm
06:47 AM 65.2°F18.4°C 59.9°F15.5°C 83% 2.0 mph WSW3.2 kmh WSW 2.7 mph4.3 kmh 29.82 in1009.8 mb 0.00 in0.0 mm 0.00 in/hr0.0 mm/hr 0.00 in0.0 mm
06:42 AM 65.2°F18.4°C 59.9°F15.5°C 83% 2.4 mph WSW3.9 kmh WSW 2.7 mph4.3 kmh 29.82 in1009.8 mb 0.00 in0.0 mm 0.00 in/hr0.0 mm/hr 0.00 in0.0 mm
06:37 AM 65.2°F18.4°C 59.9°F15.5°C 83% 2.0 mph WSW3.2 kmh WSW 3.1 mph5.0 kmh 29.82 in1009.8 mb 0.00 in0.0 mm 0.00 in/hr0.0 mm/hr 0.00 in0.0 mm
06:31 AM 65.2°F18.4°C 59.9°F15.5°C 83% 2.6 mph WSW4.2 kmh WSW 3.1 mph5.0 kmh 29.82 in1009.8 mb 0.00 in0.0 mm 0.00 in/hr0.0 mm/hr 0.00 in0.0 mm
06:26 AM 65.3°F18.5°C 60.0°F15.6°C 83% 2.8 mph WSW4.5 kmh WSW 2.9 mph4.7 kmh 29.82 in1009.8 mb 0.00 in0.0 mm 0.00 in/hr0.0 mm/hr 0.00 in0.0 mm
06:22 AM 65.3°F18.5°C 60.0°F15.6°C 83% 1.6 mph WSW2.6 kmh WSW 2.0 mph3.2 kmh 29.82 in1009.8 mb 0.00 in0.0 mm 0.00 in/hr0.0 mm/hr 0.00 in0.0 mm
06:17 AM 65.3°F18.5°C 59.7°F15.4°C 82% 1.3 mph WSW2.1 kmh WSW 2.0 mph3.2 kmh 29.82 in1009.8 mb 0.00 in0.0 mm 0.00 in/hr0.0 mm/hr 0.00 in0.0 mm
06:11 AM 65.5°F18.6°C 59.9°F15.5°C 82% 1.4 mph WSW2.3 kmh WSW 1.6 mph2.6 kmh 29.82 in1009.8 mb 0.00 in0.0 mm 0.00 in/hr0.0 mm/hr 0.00 in0.0 mm
06:06 AM 65.5°F18.6°C 59.9°F15.5°C 82% Calm Calm 1.3 mph2.1 kmh 29.81 in1009.5 mb 0.00 in0.0 mm 0.00 in/hr0.0 mm/hr 0.00 in0.0 mm
06:02 AM 65.5°F18.6°C 59.9°F15.5°C 82% Calm Calm 1.8 mph2.9 kmh 29.81 in1009.5 mb 0.00 in0.0 mm 0.00 in/hr0.0 mm/hr 0.00 in0.0 mm
05:56 AM 65.7°F18.7°C 60.0°F15.6°C 82% 1.6 mph WSW2.6 kmh WSW 2.2 mph3.5 kmh 29.81 in1009.5 mb 0.00 in0.0 mm 0.00 in/hr0.0 mm/hr 0.00 in0.0 mm
05:51 AM 65.7°F18.7°C 60.0°F15.6°C 82% 1.5 mph W2.4 kmh W 2.7 mph4.3 kmh 29.81 in1009.5 mb 0.00 in0.0 mm 0.00 in/hr0.0 mm/hr 0.00 in0.0 mm
05:47 AM 65.7°F18.7°C 60.0°F15.6°C 82% 2.2 mph WSW3.5 kmh WSW 3.1 mph5.0 kmh 29.81 in1009.5 mb 0.00 in0.0 mm 0.00 in/hr0.0 mm/hr 0.00 in0.0 mm
05:41 AM 65.7°F18.7°C 60.0°F15.6°C 82% 2.5 mph WSW4.0 kmh WSW 3.1 mph5.0 kmh 29.81 in1009.5 mb 0.00 in0.0 mm 0.00 in/hr0.0 mm/hr 0.00 in0.0 mm
05:36 AM 65.9°F18.8°C 60.2°F15.7°C 82% 2.6 mph WSW4.2 kmh WSW 3.1 mph5.0 kmh 29.81 in1009.5 mb 0.00 in0.0 mm 0.00 in/hr0.0 mm/hr 0.00 in0.0 mm
05:31 AM 65.9°F18.8°C 60.2°F15.7°C 82% 2.4 mph WSW3.9 kmh WSW 3.1 mph5.0 kmh 29.81 in1009.5 mb 0.00 in0.0 mm 0.00 in/hr0.0 mm/hr 0.00 in0.0 mm
05:26 AM 65.9°F18.8°C 60.2°F15.7°C 82% 2.5 mph WSW4.0 kmh WSW 3.1 mph5.0 kmh 29.81 in1009.5 mb 0.00 in0.0 mm 0.00 in/hr0.0 mm/hr 0.00 in0.0 mm
05:21 AM 65.9°F18.8°C 60.2°F15.7°C 82% 2.0 mph WSW3.2 kmh WSW 2.9 mph4.7 kmh 29.82 in1009.8 mb 0.00 in0.0 mm 0.00 in/hr0.0 mm/hr 0.00 in0.0 mm
05:16 AM 66.1°F18.9°C 60.4°F15.8°C 82% 2.4 mph WSW3.9 kmh WSW 2.9 mph4.7 kmh 29.81 in1009.5 mb 0.00 in0.0 mm 0.00 in/hr0.0 mm/hr 0.00 in0.0 mm
05:11 AM 66.1°F18.9°C 60.4°F15.8°C 82% 2.3 mph WSW3.7 kmh WSW 3.6 mph5.8 kmh 29.81 in1009.5 mb 0.00 in0.0 mm 0.00 in/hr0.0 mm/hr 0.00 in0.0 mm
05:06 AM 66.1°F18.9°C 60.1°F15.6°C 81% 2.8 mph WSW4.5 kmh WSW 3.6 mph5.8 kmh 29.81 in1009.5 mb 0.00 in0.0 mm 0.00 in/hr0.0 mm/hr 0.00 in0.0 mm
05:01 AM 66.1°F18.9°C 60.1°F15.6°C 81% 2.4 mph WSW3.9 kmh WSW 2.7 mph4.3 kmh 29.81 in1009.5 mb 0.00 in0.0 mm 0.00 in/hr0.0 mm/hr 0.00 in0.0 mm
04:56 AM 66.2°F19.0°C 60.3°F15.7°C 81% 1.5 mph WSW2.4 kmh WSW 2.7 mph4.3 kmh 29.81 in1009.5 mb 0.00 in0.0 mm 0.00 in/hr0.0 mm/hr 0.00 in0.0 mm
04:51 AM 66.2°F19.0°C 60.3°F15.7°C 81% 2.2 mph WSW3.5 kmh WSW 2.5 mph4.0 kmh 29.81 in1009.5 mb 0.00 in0.0 mm 0.00 in/hr0.0 mm/hr 0.00 in0.0 mm
04:46 AM 66.2°F19.0°C 60.3°F15.7°C 81% 2.0 mph WSW3.2 kmh WSW 3.4 mph5.5 kmh 29.81 in1009.5 mb 0.00 in0.0 mm 0.00 in/hr0.0 mm/hr 0.00 in0.0 mm
04:41 AM 66.2°F19.0°C 60.3°F15.7°C 81% 2.0 mph WSW3.2 kmh WSW 3.4 mph5.5 kmh 29.81 in1009.5 mb 0.00 in0.0 mm 0.00 in/hr0.0 mm/hr 0.00 in0.0 mm
04:36 AM 66.4°F19.1°C 60.5°F15.8°C 81% 3.2 mph WSW5.1 kmh WSW 3.8 mph6.1 kmh 29.81 in1009.5 mb 0.00 in0.0 mm 0.00 in/hr0.0 mm/hr 0.00 in0.0 mm
04:31 AM 66.4°F19.1°C 60.5°F15.8°C 81% 3.4 mph WSW5.5 kmh WSW 3.8 mph6.1 kmh 29.81 in1009.5 mb 0.00 in0.0 mm 0.00 in/hr0.0 mm/hr 0.00 in0.0 mm
04:26 AM 66.4°F19.1°C 60.1°F15.6°C 80% 2.2 mph WSW3.5 kmh WSW 3.4 mph5.5 kmh 29.81 in1009.5 mb 0.00 in0.0 mm 0.00 in/hr0.0 mm/hr 0.00 in0.0 mm
04:21 AM 66.4°F19.1°C 60.1°F15.6°C 80% 3.1 mph WSW5.0 kmh WSW 3.4 mph5.5 kmh 29.81 in1009.5 mb 0.00 in0.0 mm 0.00 in/hr0.0 mm/hr 0.00 in0.0 mm
04:16 AM 66.6°F19.2°C 60.3°F15.7°C 80% 2.7 mph WSW4.3 kmh WSW 3.1 mph5.0 kmh 29.81 in1009.5 mb 0.00 in0.0 mm 0.00 in/hr0.0 mm/hr 0.00 in0.0 mm
04:11 AM 66.6°F19.2°C 60.3°F15.7°C 80% 2.5 mph WSW4.0 kmh WSW 2.9 mph4.7 kmh 29.81 in1009.5 mb 0.00 in0.0 mm 0.00 in/hr0.0 mm/hr 0.00 in0.0 mm
04:06 AM 66.6°F19.2°C 60.3°F15.7°C 80% 2.3 mph WSW3.7 kmh WSW 3.6 mph5.8 kmh 29.82 in1009.8 mb 0.00 in0.0 mm 0.00 in/hr0.0 mm/hr 0.00 in0.0 mm
04:01 AM 66.6°F19.2°C 60.3°F15.7°C 80% 2.9 mph WSW4.7 kmh WSW 3.6 mph5.8 kmh 29.82 in1009.8 mb 0.00 in0.0 mm 0.00 in/hr0.0 mm/hr 0.00 in0.0 mm
03:56 AM 66.6°F19.2°C 60.3°F15.7°C 80% 3.0 mph WSW4.8 kmh WSW 3.6 mph5.8 kmh 29.82 in1009.8 mb 0.00 in0.0 mm 0.00 in/hr0.0 mm/hr 0.00 in0.0 mm
03:51 AM 66.6°F19.2°C 60.3°F15.7°C 80% 2.8 mph WSW4.5 kmh WSW 3.1 mph5.0 kmh 29.82 in1009.8 mb 0.00 in0.0 mm 0.00 in/hr0.0 mm/hr 0.00 in0.0 mm
03:46 AM 66.6°F19.2°C 60.3°F15.7°C 80% 1.7 mph WSW2.7 kmh WSW 2.7 mph4.3 kmh 29.82 in1009.8 mb 0.00 in0.0 mm 0.00 in/hr0.0 mm/hr 0.00 in0.0 mm
03:41 AM 66.8°F19.3°C 60.5°F15.8°C 80% 1.8 mph WSW2.9 kmh WSW 2.7 mph4.3 kmh 29.82 in1009.8 mb 0.00 in0.0 mm 0.00 in/hr0.0 mm/hr 0.00 in0.0 mm
03:36 AM 66.8°F19.3°C 60.5°F15.8°C 80% 2.0 mph WSW3.2 kmh WSW 3.1 mph5.0 kmh 29.82 in1009.8 mb 0.00 in0.0 mm 0.00 in/hr0.0 mm/hr 0.00 in0.0 mm
03:31 AM 66.8°F19.3°C 60.5°F15.8°C 80% 2.2 mph WSW3.5 kmh WSW 3.1 mph5.0 kmh 29.82 in1009.8 mb 0.00 in0.0 mm 0.00 in/hr0.0 mm/hr 0.00 in0.0 mm
03:26 AM 67.0°F19.4°C 60.3°F15.7°C 79% 1.9 mph WSW3.1 kmh WSW 2.9 mph4.7 kmh 29.82 in1009.8 mb 0.00 in0.0 mm 0.00 in/hr0.0 mm/hr 0.00 in0.0 mm
03:21 AM 67.0°F19.4°C 60.3°F15.7°C 79% 2.1 mph WSW3.4 kmh WSW 3.4 mph5.5 kmh 29.82 in1009.8 mb 0.00 in0.0 mm 0.00 in/hr0.0 mm/hr 0.00 in0.0 mm
03:16 AM 67.0°F19.4°C 60.3°F15.7°C 79% 2.7 mph WSW4.3 kmh WSW 3.4 mph5.5 kmh 29.83 in1010.2 mb 0.00 in0.0 mm 0.00 in/hr0.0 mm/hr 0.00 in0.0 mm
03:11 AM 67.0°F19.4°C 60.3°F15.7°C 79% 2.8 mph WSW4.5 kmh WSW 3.4 mph5.5 kmh 29.83 in1010.2 mb 0.00 in0.0 mm 0.00 in/hr0.0 mm/hr 0.00 in0.0 mm
03:06 AM 67.1°F19.5°C 60.5°F15.8°C 79% 2.4 mph WSW3.9 kmh WSW 2.5 mph4.0 kmh 29.83 in1010.2 mb 0.00 in0.0 mm 0.00 in/hr0.0 mm/hr 0.00 in0.0 mm
03:01 AM 67.1°F19.5°C 60.5°F15.8°C 79% 2.2 mph WSW3.5 kmh WSW 2.9 mph4.7 kmh 29.82 in1009.8 mb 0.00 in0.0 mm 0.00 in/hr0.0 mm/hr 0.00 in0.0 mm
02:56 AM 67.1°F19.5°C 60.1°F15.6°C 78% 2.1 mph WSW3.4 kmh WSW 3.4 mph5.5 kmh 29.83 in1010.2 mb 0.00 in0.0 mm 0.00 in/hr0.0 mm/hr 0.00 in0.0 mm
02:51 AM 67.3°F19.6°C 60.3°F15.7°C 78% 2.3 mph WSW3.7 kmh WSW 3.4 mph5.5 kmh 29.83 in1010.2 mb 0.00 in0.0 mm 0.00 in/hr0.0 mm/hr 0.00 in0.0 mm
02:46 AM 67.3°F19.6°C 60.3°F15.7°C 78% 2.8 mph WSW4.5 kmh WSW 3.4 mph5.5 kmh 29.83 in1010.2 mb 0.00 in0.0 mm 0.00 in/hr0.0 mm/hr 0.00 in0.0 mm
02:41 AM 67.5°F19.7°C 60.5°F15.8°C 78% 2.6 mph WSW4.2 kmh WSW 3.4 mph5.5 kmh 29.83 in1010.2 mb 0.00 in0.0 mm 0.00 in/hr0.0 mm/hr 0.00 in0.0 mm
02:36 AM 67.7°F19.8°C 60.2°F15.7°C 77% 3.2 mph WSW5.1 kmh WSW 3.4 mph5.5 kmh 29.83 in1010.2 mb 0.00 in0.0 mm 0.00 in/hr0.0 mm/hr 0.00 in0.0 mm
02:31 AM 67.7°F19.8°C 60.2°F15.7°C 77% 2.2 mph WSW3.5 kmh WSW 2.9 mph4.7 kmh 29.82 in1009.8 mb 0.00 in0.0 mm 0.00 in/hr0.0 mm/hr 0.00 in0.0 mm
02:26 AM 67.9°F19.9°C 60.4°F15.8°C 77% 2.0 mph WSW3.2 kmh WSW 2.7 mph4.3 kmh 29.82 in1009.8 mb 0.00 in0.0 mm 0.00 in/hr0.0 mm/hr 0.00 in0.0 mm
02:21 AM 68.0°F20.0°C 60.6°F15.9°C 77% 2.3 mph WSW3.7 kmh WSW 2.9 mph4.7 kmh 29.82 in1009.8 mb 0.00 in0.0 mm 0.00 in/hr0.0 mm/hr 0.00 in0.0 mm
02:16 AM 68.0°F20.0°C 60.6°F15.9°C 77% 2.5 mph WSW4.0 kmh WSW 2.9 mph4.7 kmh 29.82 in1009.8 mb 0.00 in0.0 mm 0.00 in/hr0.0 mm/hr 0.00 in0.0 mm
02:11 AM 68.0°F20.0°C 60.6°F15.9°C 77% 2.1 mph WSW3.4 kmh WSW 3.4 mph5.5 kmh 29.82 in1009.8 mb 0.00 in0.0 mm 0.00 in/hr0.0 mm/hr 0.00 in0.0 mm
02:06 AM 68.2°F20.1°C 60.8°F16.0°C 77% 2.6 mph WSW4.2 kmh WSW 3.4 mph5.5 kmh 29.82 in1009.8 mb 0.00 in0.0 mm 0.00 in/hr0.0 mm/hr 0.00 in0.0 mm
02:01 AM 68.2°F20.1°C 60.8°F16.0°C 77% 2.8 mph WSW4.5 kmh WSW 3.1 mph5.0 kmh 29.83 in1010.2 mb 0.00 in0.0 mm 0.00 in/hr0.0 mm/hr 0.00 in0.0 mm
01:56 AM 68.4°F20.2°C 60.9°F16.1°C 77% 2.2 mph WSW3.5 kmh WSW 2.5 mph4.0 kmh 29.82 in1009.8 mb 0.00 in0.0 mm 0.00 in/hr0.0 mm/hr 0.00 in0.0 mm
01:51 AM 68.4°F20.2°C 60.9°F16.1°C 77% 1.8 mph WSW2.9 kmh WSW 2.5 mph4.0 kmh 29.82 in1009.8 mb 0.00 in0.0 mm 0.00 in/hr0.0 mm/hr 0.00 in0.0 mm
01:46 AM 68.4°F20.2°C 60.9°F16.1°C 77% 1.8 mph WSW2.9 kmh WSW 2.9 mph4.7 kmh 29.82 in1009.8 mb 0.00 in0.0 mm 0.00 in/hr0.0 mm/hr 0.00 in0.0 mm
01:41 AM 68.4°F20.2°C 60.6°F15.9°C 76% 2.5 mph WSW4.0 kmh WSW 2.9 mph4.7 kmh 29.82 in1009.8 mb 0.00 in0.0 mm 0.00 in/hr0.0 mm/hr 0.00 in0.0 mm
01:36 AM 68.6°F20.3°C 60.8°F16.0°C 76% 2.3 mph WSW3.7 kmh WSW 2.7 mph4.3 kmh 29.83 in1010.2 mb 0.00 in0.0 mm 0.00 in/hr0.0 mm/hr 0.00 in0.0 mm
01:31 AM 68.6°F20.3°C 60.8°F16.0°C 76% 2.1 mph WSW3.4 kmh WSW 2.5 mph4.0 kmh 29.83 in1010.2 mb 0.00 in0.0 mm 0.00 in/hr0.0 mm/hr 0.00 in0.0 mm
01:26 AM 68.6°F20.3°C 60.8°F16.0°C 76% 1.7 mph WSW2.7 kmh WSW 2.0 mph3.2 kmh 29.83 in1010.2 mb 0.00 in0.0 mm 0.00 in/hr0.0 mm/hr 0.00 in0.0 mm
01:21 AM 68.8°F20.4°C 60.8°F16.0°C 76% 1.5 mph WSW2.4 kmh WSW 3.4 mph5.5 kmh 29.82 in1009.8 mb 0.00 in0.0 mm 0.00 in/hr0.0 mm/hr 0.00 in0.0 mm
01:16 AM 68.8°F20.4°C 60.5°F15.8°C 75% 2.2 mph WSW3.5 kmh WSW 3.4 mph5.5 kmh 29.83 in1010.2 mb 0.00 in0.0 mm 0.00 in/hr0.0 mm/hr 0.00 in0.0 mm
01:11 AM 68.9°F20.5°C 60.7°F15.9°C 75% 2.6 mph WSW4.2 kmh WSW 3.4 mph5.5 kmh 29.83 in1010.2 mb 0.00 in0.0 mm 0.00 in/hr0.0 mm/hr 0.00 in0.0 mm
01:06 AM 68.9°F20.5°C 60.7°F15.9°C 75% 2.6 mph WSW4.2 kmh WSW 3.4 mph5.5 kmh 29.82 in1009.8 mb 0.00 in0.0 mm 0.00 in/hr0.0 mm/hr 0.00 in0.0 mm
01:01 AM 69.1°F20.6°C 60.5°F15.8°C 74% 2.8 mph WSW4.5 kmh WSW 3.4 mph5.5 kmh 29.83 in1010.2 mb 0.00 in0.0 mm 0.00 in/hr0.0 mm/hr 0.00 in0.0 mm
12:56 AM 69.3°F20.7°C 60.6°F15.9°C 74% 2.1 mph WSW3.4 kmh WSW 2.5 mph4.0 kmh 29.83 in1010.2 mb 0.00 in0.0 mm 0.00 in/hr0.0 mm/hr 0.00 in0.0 mm
12:51 AM 69.3°F20.7°C 60.6°F15.9°C 74% 2.1 mph WSW3.4 kmh WSW 2.5 mph4.0 kmh 29.83 in1010.2 mb 0.00 in0.0 mm 0.00 in/hr0.0 mm/hr 0.00 in0.0 mm
12:46 AM 69.5°F20.8°C 60.8°F16.0°C 74% 2.0 mph WSW3.2 kmh WSW 2.5 mph4.0 kmh 29.83 in1010.2 mb 0.00 in0.0 mm 0.00 in/hr0.0 mm/hr 0.00 in0.0 mm
12:41 AM 69.5°F20.8°C 60.8°F16.0°C 74% 1.9 mph WSW3.1 kmh WSW 2.2 mph3.5 kmh 29.83 in1010.2 mb 0.00 in0.0 mm 0.00 in/hr0.0 mm/hr 0.00 in0.0 mm
12:36 AM 69.8°F21.0°C 61.1°F16.2°C 74% 1.7 mph WSW2.7 kmh WSW 2.7 mph4.3 kmh 29.83 in1010.2 mb 0.00 in0.0 mm 0.00 in/hr0.0 mm/hr 0.00 in0.0 mm
12:31 AM 69.8°F21.0°C 61.1°F16.2°C 74% 1.7 mph WSW2.7 kmh WSW 3.4 mph5.5 kmh 29.83 in1010.2 mb 0.00 in0.0 mm 0.00 in/hr0.0 mm/hr 0.00 in0.0 mm
12:26 AM 70.0°F21.1°C 61.3°F16.3°C 74% 2.8 mph WSW4.5 kmh WSW 3.4 mph5.5 kmh 29.83 in1010.2 mb 0.00 in0.0 mm 0.00 in/hr0.0 mm/hr 0.00 in0.0 mm
12:21 AM 70.2°F21.2°C 61.5°F16.4°C 74% 2.9 mph WSW4.7 kmh WSW 3.1 mph5.0 kmh 29.83 in1010.2 mb 0.00 in0.0 mm 0.00 in/hr0.0 mm/hr 0.00 in0.0 mm
12:16 AM 70.2°F21.2°C 61.1°F16.2°C 73% 2.6 mph WSW4.2 kmh WSW 3.1 mph5.0 kmh 29.83 in1010.2 mb 0.00 in0.0 mm 0.00 in/hr0.0 mm/hr 0.00 in0.0 mm
12:11 AM 70.2°F21.2°C 61.1°F16.2°C 73% 1.5 mph NW2.4 kmh NW 1.8 mph2.9 kmh 29.83 in1010.2 mb 0.00 in0.0 mm 0.00 in/hr0.0 mm/hr 0.00 in0.0 mm
12:06 AM 70.4°F21.3°C 61.3°F16.3°C 73% 0.8 mph NNW1.3 kmh NNW 1.3 mph2.1 kmh 29.83 in1010.2 mb 0.00 in0.0 mm 0.00 in/hr0.0 mm/hr 0.00 in0.0 mm
12:01 AM 70.6°F21.4°C 61.0°F16.1°C 72% 1.0 mph W1.6 kmh W 1.3 mph2.1 kmh 29.83 in1010.2 mb 0.00 in0.0 mm 0.00 in/hr0.0 mm/hr 0.00 in0.0 mm